createdAt,value
2023-04-01T00:00:16.829Z,93850.00
2023-04-01T00:01:16.874Z,93852.00
2023-04-01T00:02:16.938Z,93844.00
2023-04-01T00:03:17.074Z,93842.00
2023-04-01T00:04:17.063Z,93842.00
2023-04-01T00:05:16.992Z,93846.00
2023-04-01T00:06:17.065Z,93850.00
2023-04-01T00:07:17.039Z,93852.00
2023-04-01T00:08:17.081Z,93846.00
2023-04-01T00:09:17.110Z,93842.00
2023-04-01T00:10:17.141Z,93844.00
2023-04-01T00:11:17.175Z,93844.00
2023-04-01T00:12:17.198Z,93846.00
2023-04-01T00:13:17.291Z,93846.00
2023-04-01T00:14:17.273Z,93844.00
2023-04-01T00:15:17.269Z,93846.00
2023-04-01T00:16:22.373Z,93846.00
2023-04-01T00:17:18.925Z,93846.00
2023-04-01T00:18:17.292Z,93848.00
2023-04-01T00:19:17.331Z,93848.00
2023-04-01T00:20:17.262Z,93846.00
2023-04-01T00:21:17.249Z,93846.00
2023-04-01T00:22:17.255Z,93848.00
2023-04-01T00:23:17.273Z,93844.00
2023-04-01T00:24:17.237Z,93842.00
2023-04-01T00:25:17.277Z,93840.00
2023-04-01T00:26:17.253Z,93840.00
2023-04-01T00:27:17.220Z,93838.00
2023-04-01T00:28:17.273Z,93838.00
2023-04-01T00:29:17.224Z,93840.00
2023-04-01T00:30:17.210Z,93838.00
2023-04-01T00:31:17.286Z,93834.00
2023-04-01T00:32:17.224Z,93832.00
2023-04-01T00:33:17.216Z,93828.00
2023-04-01T00:34:17.257Z,93832.00
2023-04-01T00:35:17.247Z,93836.00
2023-04-01T00:36:17.334Z,93840.00
2023-04-01T00:37:17.297Z,93844.00
2023-04-01T00:38:17.341Z,93846.00
2023-04-01T00:39:17.379Z,93844.00
2023-04-01T00:40:17.430Z,93842.00
2023-04-01T00:41:17.461Z,93840.00
2023-04-01T00:42:17.463Z,93842.00
2023-04-01T00:43:17.547Z,93840.00
2023-04-01T00:44:17.528Z,93836.00
2023-04-01T00:45:17.609Z,93836.00
2023-04-01T00:46:17.665Z,93838.00
2023-04-01T00:47:17.644Z,93836.00
2023-04-01T00:48:17.679Z,93836.00
2023-04-01T00:49:17.723Z,93836.00
2023-04-01T00:50:17.773Z,93840.00
2023-04-01T00:51:17.767Z,93842.00
2023-04-01T00:52:17.821Z,93846.00
2023-04-01T00:53:17.846Z,93842.00
2023-04-01T00:54:17.893Z,93840.00
2023-04-01T00:55:17.980Z,93836.00
2023-04-01T00:56:17.915Z,93838.00
2023-04-01T00:57:18.014Z,93836.00
2023-04-01T00:58:17.972Z,93840.00
2023-04-01T00:59:18.040Z,93840.00
2023-04-01T01:00:18.042Z,93834.00
2023-04-01T01:01:18.163Z,93832.00
2023-04-01T01:02:18.131Z,93830.00
2023-04-01T01:03:18.187Z,93832.00
2023-04-01T01:04:18.197Z,93832.00
2023-04-01T01:05:18.232Z,93834.00
2023-04-01T01:06:18.287Z,93830.00
2023-04-01T01:07:18.285Z,93830.00
2023-04-01T01:08:18.360Z,93826.00
2023-04-01T01:09:18.359Z,93824.00
2023-04-01T01:10:18.372Z,93822.00
2023-04-01T01:11:18.394Z,93822.00
2023-04-01T01:12:18.444Z,93830.00
2023-04-01T01:13:18.452Z,93834.00
2023-04-01T01:14:18.494Z,93832.00
2023-04-01T01:15:18.497Z,93828.00
2023-04-01T01:16:18.599Z,93826.00
2023-04-01T01:17:18.552Z,93826.00
2023-04-01T01:18:19.515Z,93820.00
2023-04-01T01:19:18.633Z,93820.00
2023-04-01T01:20:25.927Z,93822.00
2023-04-01T01:21:19.674Z,93817.00
2023-04-01T01:22:18.632Z,93815.00
2023-04-01T01:23:18.615Z,93817.00
2023-04-01T01:24:18.636Z,93819.00
2023-04-01T01:25:18.609Z,93820.00
2023-04-01T01:26:18.592Z,93820.00
2023-04-01T01:27:18.613Z,93817.00
2023-04-01T01:28:18.606Z,93811.00
2023-04-01T01:29:18.610Z,93813.00
2023-04-01T01:30:18.576Z,93815.00
2023-04-01T01:31:18.603Z,93819.00
2023-04-01T01:32:18.564Z,93820.00
2023-04-01T01:33:18.587Z,93822.00
2023-04-01T01:34:18.538Z,93824.00
2023-04-01T01:35:18.579Z,93817.00
2023-04-01T01:36:18.568Z,93819.00
2023-04-01T01:37:18.593Z,93817.00
2023-04-01T01:38:18.616Z,93817.00
2023-04-01T01:39:18.627Z,93819.00
2023-04-01T01:40:18.683Z,93819.00
2023-04-01T01:41:18.735Z,93820.00
2023-04-01T01:42:18.717Z,93817.00
2023-04-01T01:43:18.800Z,93819.00
2023-04-01T01:44:18.801Z,93813.00
2023-04-01T01:45:18.889Z,93815.00
2023-04-01T01:46:18.881Z,93805.00
2023-04-01T01:47:18.876Z,93803.00
2023-04-01T01:48:18.937Z,93803.00
2023-04-01T01:49:18.978Z,93799.00
2023-04-01T01:50:19.062Z,93799.00
2023-04-01T01:51:19.034Z,93803.00
2023-04-01T01:52:19.055Z,93801.00
2023-04-01T01:53:19.097Z,93803.00
2023-04-01T01:54:19.161Z,93803.00
2023-04-01T01:55:19.304Z,93803.00
2023-04-01T01:56:19.207Z,93805.00
2023-04-01T01:57:19.303Z,93799.00
2023-04-01T01:58:19.278Z,93797.00
2023-04-01T01:59:19.317Z,93799.00
2023-04-01T02:00:19.353Z,93803.00
2023-04-01T02:01:19.410Z,93799.00
2023-04-01T02:02:19.411Z,93799.00
2023-04-01T02:03:19.443Z,93795.00
2023-04-01T02:04:19.501Z,93793.00
2023-04-01T02:05:19.557Z,93795.00
2023-04-01T02:06:19.580Z,93797.00
2023-04-01T02:07:19.611Z,93797.00
2023-04-01T02:08:19.670Z,93793.00
2023-04-01T02:09:19.674Z,93793.00
2023-04-01T02:10:19.742Z,93791.00
2023-04-01T02:11:19.760Z,93791.00
2023-04-01T02:12:19.803Z,93789.00
2023-04-01T02:13:19.882Z,93785.00
2023-04-01T02:14:19.871Z,93781.00
2023-04-01T02:15:19.920Z,93787.00
2023-04-01T02:16:19.953Z,93793.00
2023-04-01T02:17:20.023Z,93795.00
2023-04-01T02:18:20.025Z,93795.00
2023-04-01T02:19:20.127Z,93793.00
2023-04-01T02:20:20.131Z,93795.00
2023-04-01T02:21:20.133Z,93797.00
2023-04-01T02:22:20.174Z,93801.00
2023-04-01T02:23:20.237Z,93803.00
2023-04-01T02:24:20.287Z,93805.00
2023-04-01T02:25:20.357Z,93809.00
2023-04-01T02:26:20.374Z,93811.00
2023-04-01T02:27:20.398Z,93815.00
2023-04-01T02:28:20.431Z,93815.00
2023-04-01T02:29:20.461Z,93813.00
2023-04-01T02:30:20.507Z,93811.00
2023-04-01T02:31:20.565Z,93813.00
2023-04-01T02:32:20.598Z,93815.00
2023-04-01T02:33:20.609Z,93815.00
2023-04-01T02:34:20.673Z,93819.00
2023-04-01T02:35:20.723Z,93815.00
2023-04-01T02:36:20.783Z,93817.00
2023-04-01T02:37:20.835Z,93815.00
2023-04-01T02:38:20.826Z,93819.00
2023-04-01T02:39:20.917Z,93820.00
2023-04-01T02:40:20.951Z,93819.00
2023-04-01T02:41:20.950Z,93817.00
2023-04-01T02:42:20.988Z,93815.00
2023-04-01T02:43:21.084Z,93817.00
2023-04-01T02:44:21.107Z,93815.00
2023-04-01T02:45:21.157Z,93819.00
2023-04-01T02:46:21.245Z,93817.00
2023-04-01T02:47:21.315Z,93815.00
2023-04-01T02:48:21.282Z,93819.00
2023-04-01T02:49:21.323Z,93822.00
2023-04-01T02:50:21.377Z,93824.00
2023-04-01T02:51:21.456Z,93826.00
2023-04-01T02:52:21.477Z,93830.00
2023-04-01T02:53:21.496Z,93828.00
2023-04-01T02:54:21.557Z,93830.00
2023-04-01T02:55:21.572Z,93832.00
2023-04-01T02:56:21.648Z,93834.00
2023-04-01T02:57:21.721Z,93836.00
2023-04-01T02:58:21.716Z,93836.00
2023-04-01T02:59:21.776Z,93834.00
2023-04-01T03:00:21.822Z,93838.00
2023-04-01T03:01:21.973Z,93840.00
2023-04-01T03:02:21.957Z,93840.00
2023-04-01T03:03:21.980Z,93842.00
2023-04-01T03:04:22.010Z,93840.00
2023-04-01T03:05:22.052Z,93842.00
2023-04-01T03:06:22.096Z,93842.00
2023-04-01T03:07:22.153Z,93844.00
2023-04-01T03:08:22.206Z,93842.00
2023-04-01T03:09:22.254Z,93852.00
2023-04-01T03:10:22.304Z,93848.00
2023-04-01T03:11:22.341Z,93850.00
2023-04-01T03:12:22.422Z,93850.00
2023-04-01T03:13:22.465Z,93852.00
2023-04-01T03:14:22.523Z,93854.00
2023-04-01T03:15:22.548Z,93854.00
2023-04-01T03:16:22.688Z,93858.00
2023-04-01T03:17:22.661Z,93858.00
2023-04-01T03:18:22.681Z,93867.00
2023-04-01T03:19:22.753Z,93871.00
2023-04-01T03:20:22.778Z,93873.00
2023-04-01T03:21:22.853Z,93875.00
2023-04-01T03:22:22.913Z,93879.00
2023-04-01T03:23:22.962Z,93881.00
2023-04-01T03:24:23.025Z,93883.00
2023-04-01T03:25:23.044Z,93881.00
2023-04-01T03:26:23.090Z,93879.00
2023-04-01T03:27:23.162Z,93877.00
2023-04-01T03:28:23.217Z,93873.00
2023-04-01T03:29:23.356Z,93873.00
2023-04-01T03:30:23.338Z,93869.00
2023-04-01T03:31:23.917Z,93871.00
2023-04-01T03:32:23.416Z,93869.00
2023-04-01T03:33:23.442Z,93871.00
2023-04-01T03:34:23.476Z,93873.00
2023-04-01T03:35:23.513Z,93875.00
2023-04-01T03:36:23.681Z,93873.00
2023-04-01T03:37:23.636Z,93875.00
2023-04-01T03:38:23.691Z,93877.00
2023-04-01T03:39:23.718Z,93877.00
2023-04-01T03:40:23.803Z,93877.00
2023-04-01T03:41:23.843Z,93877.00
2023-04-01T03:42:23.881Z,93881.00
2023-04-01T03:43:23.939Z,93883.00
2023-04-01T03:44:23.995Z,93883.00
2023-04-01T03:45:24.012Z,93879.00
2023-04-01T03:46:24.144Z,93879.00
2023-04-01T03:47:24.157Z,93877.00
2023-04-01T03:48:24.142Z,93877.00
2023-04-01T03:49:24.193Z,93877.00
2023-04-01T03:50:24.264Z,93879.00
2023-04-01T03:51:24.284Z,93879.00
2023-04-01T03:52:24.353Z,93879.00
2023-04-01T03:53:24.401Z,93881.00
2023-04-01T03:54:24.443Z,93879.00
2023-04-01T03:55:24.470Z,93883.00
2023-04-01T03:56:24.526Z,93881.00
2023-04-01T03:57:24.644Z,93881.00
2023-04-01T03:58:24.624Z,93879.00
2023-04-01T03:59:24.633Z,93883.00
2023-04-01T04:00:24.716Z,93883.00
2023-04-01T04:01:24.709Z,93883.00
2023-04-01T04:02:24.829Z,93881.00
2023-04-01T04:03:24.952Z,93877.00
2023-04-01T04:04:24.927Z,93875.00
2023-04-01T04:05:24.893Z,93873.00
2023-04-01T04:06:24.924Z,93877.00
2023-04-01T04:07:24.957Z,93881.00
2023-04-01T04:08:25.016Z,93883.00
2023-04-01T04:09:25.057Z,93883.00
2023-04-01T04:10:25.053Z,93885.00
2023-04-01T04:11:25.151Z,93889.00
2023-04-01T04:12:25.146Z,93889.00
2023-04-01T04:13:25.216Z,93889.00
2023-04-01T04:14:25.256Z,93887.00
2023-04-01T04:15:25.271Z,93887.00
2023-04-01T04:16:25.337Z,93891.00
2023-04-01T04:17:25.355Z,93893.00
2023-04-01T04:18:25.377Z,93895.00
2023-04-01T04:19:25.407Z,93895.00
2023-04-01T04:20:25.471Z,93895.00
2023-04-01T04:21:25.541Z,93899.00
2023-04-01T04:22:25.580Z,93901.00
2023-04-01T04:23:25.637Z,93905.00
2023-04-01T04:24:25.663Z,93907.00
2023-04-01T04:25:25.684Z,93911.00
2023-04-01T04:26:25.733Z,93912.00
2023-04-01T04:27:25.789Z,93912.00
2023-04-01T04:28:25.862Z,93914.00
2023-04-01T04:29:25.899Z,93914.00
2023-04-01T04:30:25.939Z,93912.00
2023-04-01T04:31:26.049Z,93912.00
2023-04-01T04:32:26.076Z,93916.00
2023-04-01T04:33:26.099Z,93918.00
2023-04-01T04:34:26.190Z,93920.00
2023-04-01T04:35:26.223Z,93924.00
2023-04-01T04:36:26.262Z,93924.00
2023-04-01T04:37:26.332Z,93924.00
2023-04-01T04:38:26.392Z,93924.00
2023-04-01T04:39:26.456Z,93922.00
2023-04-01T04:40:26.471Z,93918.00
2023-04-01T04:41:26.503Z,93918.00
2023-04-01T04:42:26.580Z,93916.00
2023-04-01T04:43:26.669Z,93918.00
2023-04-01T04:44:26.699Z,93918.00
2023-04-01T04:45:26.753Z,93916.00
2023-04-01T04:46:26.860Z,93916.00
2023-04-01T04:47:26.870Z,93918.00
2023-04-01T04:48:26.919Z,93918.00
2023-04-01T04:49:26.987Z,93922.00
2023-04-01T04:50:27.017Z,93924.00
2023-04-01T04:51:27.097Z,93924.00
2023-04-01T04:52:27.138Z,93922.00
2023-04-01T04:53:27.251Z,93922.00
2023-04-01T04:54:27.255Z,93924.00
2023-04-01T04:55:27.316Z,93924.00
2023-04-01T04:56:27.357Z,93926.00
2023-04-01T04:57:27.522Z,93924.00
2023-04-01T04:58:27.490Z,93924.00
2023-04-01T04:59:27.618Z,93924.00
2023-04-01T05:00:27.617Z,93926.00
2023-04-01T05:01:27.673Z,93926.00
2023-04-01T05:02:27.748Z,93924.00
2023-04-01T05:03:27.804Z,93922.00
2023-04-01T05:04:27.810Z,93924.00
2023-04-01T05:05:27.873Z,93924.00
2023-04-01T05:06:27.918Z,93926.00
2023-04-01T05:07:28.016Z,93930.00
2023-04-01T05:08:28.071Z,93932.00
2023-04-01T05:09:28.132Z,93932.00
2023-04-01T05:10:28.192Z,93932.00
2023-04-01T05:11:28.274Z,93938.00
2023-04-01T05:12:28.301Z,93942.00
2023-04-01T05:13:28.366Z,93946.00
2023-04-01T05:14:28.427Z,93944.00
2023-04-01T05:15:28.505Z,93944.00
2023-04-01T05:16:28.555Z,93944.00
2023-04-01T05:17:28.608Z,93942.00
2023-04-01T05:18:28.672Z,93940.00
2023-04-01T05:19:28.725Z,93938.00
2023-04-01T05:20:28.790Z,93938.00
2023-04-01T05:21:28.863Z,93938.00
2023-04-01T05:22:28.935Z,93940.00
2023-04-01T05:23:28.955Z,93940.00
2023-04-01T05:24:29.013Z,93942.00
2023-04-01T05:25:29.080Z,93944.00
2023-04-01T05:26:29.154Z,93946.00
2023-04-01T05:27:29.195Z,93942.00
2023-04-01T05:28:29.244Z,93942.00
2023-04-01T05:29:29.327Z,93946.00
2023-04-01T05:30:29.337Z,93948.00
2023-04-01T05:31:29.450Z,93948.00
2023-04-01T05:32:30.057Z,93948.00
2023-04-01T05:33:29.506Z,93944.00
2023-04-01T05:34:29.550Z,93940.00
2023-04-01T05:35:29.665Z,93944.00
2023-04-01T05:36:29.680Z,93944.00
2023-04-01T05:37:29.731Z,93940.00
2023-04-01T05:38:29.798Z,93944.00
2023-04-01T05:39:29.871Z,93946.00
2023-04-01T05:40:29.927Z,93950.00
2023-04-01T05:41:29.976Z,93948.00
2023-04-01T05:42:30.022Z,93944.00
2023-04-01T05:43:30.075Z,93940.00
2023-04-01T05:44:30.138Z,93942.00
2023-04-01T05:45:30.194Z,93940.00
2023-04-01T05:46:30.303Z,93942.00
2023-04-01T05:47:30.304Z,93942.00
2023-04-01T05:48:30.401Z,93942.00
2023-04-01T05:49:30.442Z,93942.00
2023-04-01T05:50:30.465Z,93942.00
2023-04-01T05:51:30.546Z,93942.00
2023-04-01T05:52:30.587Z,93944.00
2023-04-01T05:53:30.669Z,93948.00
2023-04-01T05:54:30.724Z,93948.00
2023-04-01T05:55:30.788Z,93950.00
2023-04-01T05:56:30.813Z,93950.00
2023-04-01T05:57:30.921Z,93948.00
2023-04-01T05:58:30.934Z,93948.00
2023-04-01T05:59:31.005Z,93948.00
2023-04-01T06:00:31.082Z,93950.00
2023-04-01T06:01:31.122Z,93956.00
2023-04-01T06:02:31.287Z,93954.00
2023-04-01T06:03:31.359Z,93954.00
2023-04-01T06:04:31.350Z,93952.00
2023-04-01T06:05:31.479Z,93950.00
2023-04-01T06:06:31.386Z,93946.00
2023-04-01T06:07:31.436Z,93946.00
2023-04-01T06:08:31.494Z,93946.00
2023-04-01T06:09:31.526Z,93948.00
2023-04-01T06:10:31.569Z,93950.00
2023-04-01T06:11:31.668Z,93952.00
2023-04-01T06:12:31.714Z,93954.00
2023-04-01T06:13:31.791Z,93954.00
2023-04-01T06:14:31.837Z,93952.00
2023-04-01T06:15:32.129Z,93959.00
2023-04-01T06:16:31.954Z,93956.00
2023-04-01T06:17:31.950Z,93956.00
2023-04-01T06:18:32.028Z,93956.00
2023-04-01T06:19:32.071Z,93963.00
2023-04-01T06:20:32.129Z,93965.00
2023-04-01T06:21:32.197Z,93965.00
2023-04-01T06:22:32.240Z,93963.00
2023-04-01T06:23:32.305Z,93963.00
2023-04-01T06:24:32.345Z,93961.00
2023-04-01T06:25:32.638Z,93963.00
2023-04-01T06:26:32.460Z,93965.00
2023-04-01T06:27:32.493Z,93967.00
2023-04-01T06:28:32.579Z,93969.00
2023-04-01T06:29:32.610Z,93969.00
2023-04-01T06:30:32.673Z,93969.00
2023-04-01T06:31:32.775Z,93969.00
2023-04-01T06:32:32.778Z,93971.00
2023-04-01T06:33:32.852Z,93973.00
2023-04-01T06:34:33.085Z,93975.00
2023-04-01T06:35:33.205Z,93969.00
2023-04-01T06:36:33.024Z,93971.00
2023-04-01T06:37:33.054Z,93967.00
2023-04-01T06:38:33.105Z,93963.00
2023-04-01T06:39:34.166Z,93963.00
2023-04-01T06:40:33.227Z,93965.00
2023-04-01T06:41:33.290Z,93958.00
2023-04-01T06:42:33.356Z,93952.00
2023-04-01T06:43:33.392Z,93952.00
2023-04-01T06:44:33.466Z,93950.00
2023-04-01T06:45:33.699Z,93948.00
2023-04-01T06:46:33.569Z,93948.00
2023-04-01T06:47:33.633Z,93946.00
2023-04-01T06:48:33.660Z,93944.00
2023-04-01T06:49:33.705Z,93944.00
2023-04-01T06:50:33.772Z,93946.00
2023-04-01T06:51:33.849Z,93944.00
2023-04-01T06:52:33.902Z,93944.00
2023-04-01T06:53:33.909Z,93944.00
2023-04-01T06:54:33.972Z,93940.00
2023-04-01T06:55:34.316Z,93938.00
2023-04-01T06:56:34.076Z,93940.00
2023-04-01T06:57:34.149Z,93938.00
2023-04-01T06:58:34.187Z,93938.00
2023-04-01T06:59:34.235Z,93942.00
2023-04-01T07:00:34.281Z,93944.00
2023-04-01T07:01:34.412Z,93942.00
2023-04-01T07:02:34.417Z,93944.00
2023-04-01T07:03:34.426Z,93944.00
2023-04-01T07:04:34.492Z,93944.00
2023-04-01T07:05:34.670Z,93944.00
2023-04-01T07:06:34.521Z,93942.00
2023-04-01T07:07:34.550Z,93942.00
2023-04-01T07:08:34.609Z,93946.00
2023-04-01T07:09:34.625Z,93944.00
2023-04-01T07:10:35.006Z,93944.00
2023-04-01T07:11:34.692Z,93948.00
2023-04-01T07:12:34.744Z,93944.00
2023-04-01T07:13:34.787Z,93948.00
2023-04-01T07:14:34.823Z,93946.00
2023-04-01T07:15:35.108Z,93946.00
2023-04-01T07:16:34.938Z,93944.00
2023-04-01T07:17:34.960Z,93944.00
2023-04-01T07:18:34.959Z,93944.00
2023-04-01T07:19:34.995Z,93944.00
2023-04-01T07:20:34.961Z,93942.00
2023-04-01T07:21:34.948Z,93942.00
2023-04-01T07:22:34.930Z,93944.00
2023-04-01T07:23:34.933Z,93944.00
2023-04-01T07:24:34.979Z,93944.00
2023-04-01T07:25:35.275Z,93942.00
2023-04-01T07:26:34.945Z,93944.00
2023-04-01T07:27:34.918Z,93942.00
2023-04-01T07:28:35.038Z,93946.00
2023-04-01T07:29:34.920Z,93944.00
2023-04-01T07:30:34.926Z,93942.00
2023-04-01T07:31:34.940Z,93942.00
2023-04-01T07:32:36.182Z,93942.00
2023-04-01T07:33:34.899Z,93946.00
2023-04-01T07:34:34.863Z,93946.00
2023-04-01T07:35:35.163Z,93950.00
2023-04-01T07:36:34.854Z,93948.00
2023-04-01T07:37:34.842Z,93952.00
2023-04-01T07:38:34.896Z,93952.00
2023-04-01T07:39:35.071Z,93956.00
2023-04-01T07:40:34.836Z,93954.00
2023-04-01T07:41:34.825Z,93954.00
2023-04-01T07:42:34.835Z,93959.00
2023-04-01T07:43:34.832Z,93958.00
2023-04-01T07:44:34.819Z,93956.00
2023-04-01T07:45:35.175Z,93958.00
2023-04-01T07:46:34.861Z,93959.00
2023-04-01T07:47:34.818Z,93956.00
2023-04-01T07:48:34.836Z,93956.00
2023-04-01T07:49:34.784Z,93958.00
2023-04-01T07:50:34.747Z,93956.00
2023-04-01T07:51:34.771Z,93958.00
2023-04-01T07:52:34.746Z,93958.00
2023-04-01T07:53:34.755Z,93959.00
2023-04-01T07:54:34.810Z,93959.00
2023-04-01T07:55:35.163Z,93958.00
2023-04-01T07:56:34.869Z,93959.00
2023-04-01T07:57:34.875Z,93958.00
2023-04-01T07:58:34.938Z,93959.00
2023-04-01T07:59:34.981Z,93959.00
2023-04-01T08:00:34.998Z,93963.00
2023-04-01T08:01:35.017Z,93963.00
2023-04-01T08:02:35.126Z,93963.00
2023-04-01T08:03:35.185Z,93961.00
2023-04-01T08:04:35.164Z,93958.00
2023-04-01T08:05:35.564Z,93954.00
2023-04-01T08:06:35.170Z,93952.00
2023-04-01T08:07:35.212Z,93952.00
2023-04-01T08:08:35.224Z,93952.00
2023-04-01T08:09:35.282Z,93952.00
2023-04-01T08:10:35.279Z,93952.00
2023-04-01T08:11:35.351Z,93950.00
2023-04-01T08:12:35.338Z,93952.00
2023-04-01T08:13:35.479Z,93948.00
2023-04-01T08:14:35.413Z,93948.00
2023-04-01T08:15:35.636Z,93948.00
2023-04-01T08:16:35.594Z,93948.00
2023-04-01T08:17:35.589Z,93946.00
2023-04-01T08:18:35.522Z,93946.00
2023-04-01T08:19:35.587Z,93944.00
2023-04-01T08:20:35.593Z,93946.00
2023-04-01T08:21:35.611Z,93944.00
2023-04-01T08:22:35.651Z,93944.00
2023-04-01T08:23:35.688Z,93942.00
2023-04-01T08:24:46.447Z,93940.00
2023-04-01T08:25:36.730Z,93938.00
2023-04-01T08:26:35.702Z,93934.00
2023-04-01T08:27:35.708Z,93932.00
2023-04-01T08:28:35.717Z,93930.00
2023-04-01T08:29:35.722Z,93928.00
2023-04-01T08:30:35.682Z,93926.00
2023-04-01T08:31:36.626Z,93926.00
2023-04-01T08:32:35.690Z,93922.00
2023-04-01T08:33:35.647Z,93922.00
2023-04-01T08:34:35.672Z,93920.00
2023-04-01T08:35:38.313Z,93918.00
2023-04-01T08:36:35.677Z,93922.00
2023-04-01T08:37:35.626Z,93924.00
2023-04-01T08:38:35.639Z,93922.00
2023-04-01T08:39:35.646Z,93918.00
2023-04-01T08:40:35.643Z,93916.00
2023-04-01T08:41:35.636Z,93916.00
2023-04-01T08:42:35.614Z,93916.00
2023-04-01T08:43:35.617Z,93922.00
2023-04-01T08:44:35.621Z,93920.00
2023-04-01T08:45:35.851Z,93918.00
2023-04-01T08:46:35.595Z,93916.00
2023-04-01T08:47:35.584Z,93914.00
2023-04-01T08:48:35.599Z,93916.00
2023-04-01T08:49:35.593Z,93920.00
2023-04-01T08:50:35.540Z,93918.00
2023-04-01T08:51:35.567Z,93920.00
2023-04-01T08:52:35.537Z,93918.00
2023-04-01T08:53:35.535Z,93920.00
2023-04-01T08:54:35.553Z,93916.00
2023-04-01T08:55:35.772Z,93918.00
2023-04-01T08:56:35.510Z,93920.00
2023-04-01T08:57:35.563Z,93920.00
2023-04-01T08:58:35.512Z,93918.00
2023-04-01T08:59:35.512Z,93914.00
2023-04-01T09:00:35.532Z,93911.00
2023-04-01T09:01:35.506Z,93912.00
2023-04-01T09:02:35.557Z,93914.00
2023-04-01T09:03:35.566Z,93914.00
2023-04-01T09:04:35.499Z,93914.00
2023-04-01T09:05:35.546Z,93914.00
2023-04-01T09:06:35.462Z,93914.00
2023-04-01T09:07:35.443Z,93914.00
2023-04-01T09:08:35.476Z,93912.00
2023-04-01T09:09:35.488Z,93912.00
2023-04-01T09:10:35.442Z,93912.00
2023-04-01T09:11:35.438Z,93912.00
2023-04-01T09:12:35.426Z,93911.00
2023-04-01T09:13:35.448Z,93909.00
2023-04-01T09:14:35.395Z,93905.00
2023-04-01T09:15:35.734Z,93905.00
2023-04-01T09:16:35.425Z,93905.00
2023-04-01T09:17:35.402Z,93897.00
2023-04-01T09:18:35.374Z,93897.00
2023-04-01T09:19:35.390Z,93897.00
2023-04-01T09:20:35.391Z,93895.00
2023-04-01T09:21:35.380Z,93895.00
2023-04-01T09:22:35.384Z,93895.00
2023-04-01T09:23:35.336Z,93893.00
2023-04-01T09:24:35.429Z,93885.00
2023-04-01T09:25:35.752Z,93887.00
2023-04-01T09:26:35.343Z,93887.00
2023-04-01T09:27:35.320Z,93881.00
2023-04-01T09:28:35.324Z,93881.00
2023-04-01T09:29:35.310Z,93881.00
2023-04-01T09:30:35.314Z,93881.00
2023-04-01T09:31:35.368Z,93879.00
2023-04-01T09:32:35.374Z,93879.00
2023-04-01T09:33:35.314Z,93875.00
2023-04-01T09:34:35.316Z,93879.00
2023-04-01T09:35:35.562Z,93877.00
2023-04-01T09:36:35.278Z,93873.00
2023-04-01T09:37:35.273Z,93869.00
2023-04-01T09:38:35.291Z,93865.00
2023-04-01T09:39:35.280Z,93865.00
2023-04-01T09:40:35.263Z,93865.00
2023-04-01T09:41:35.329Z,93865.00
2023-04-01T09:42:35.277Z,93867.00
2023-04-01T09:43:35.286Z,93865.00
2023-04-01T09:44:35.227Z,93865.00
2023-04-01T09:45:35.223Z,93854.00
2023-04-01T09:46:35.265Z,93856.00
2023-04-01T09:47:35.293Z,93854.00
2023-04-01T09:48:35.290Z,93850.00
2023-04-01T09:49:35.319Z,93852.00
2023-04-01T09:50:35.346Z,93854.00
2023-04-01T09:51:35.380Z,93848.00
2023-04-01T09:52:35.362Z,93848.00
2023-04-01T09:53:35.399Z,93848.00
2023-04-01T09:54:35.400Z,93842.00
2023-04-01T09:55:35.575Z,93846.00
2023-04-01T09:56:35.461Z,93840.00
2023-04-01T09:57:35.582Z,93842.00
2023-04-01T09:58:35.518Z,93838.00
2023-04-01T09:59:36.529Z,93836.00
2023-04-01T10:00:35.491Z,93832.00
2023-04-01T10:01:35.533Z,93828.00
2023-04-01T10:02:35.554Z,93824.00
2023-04-01T10:03:35.508Z,93830.00
2023-04-01T10:04:35.467Z,93832.00
2023-04-01T10:05:35.776Z,93828.00
2023-04-01T10:06:35.477Z,93830.00
2023-04-01T10:07:35.468Z,93826.00
2023-04-01T10:08:35.451Z,93828.00
2023-04-01T10:09:35.474Z,93822.00
2023-04-01T10:10:35.428Z,93826.00
2023-04-01T10:11:35.441Z,93824.00
2023-04-01T10:12:35.403Z,93828.00
2023-04-01T10:13:35.418Z,93826.00
2023-04-01T10:14:35.376Z,93824.00
2023-04-01T10:15:35.694Z,93820.00
2023-04-01T10:16:35.473Z,93820.00
2023-04-01T10:17:35.468Z,93820.00
2023-04-01T10:18:35.382Z,93820.00
2023-04-01T10:19:35.446Z,93822.00
2023-04-01T10:20:35.482Z,93820.00
2023-04-01T10:21:35.463Z,93817.00
2023-04-01T10:22:35.480Z,93817.00
2023-04-01T10:23:35.514Z,93815.00
2023-04-01T10:24:35.501Z,93811.00
2023-04-01T10:25:35.770Z,93813.00
2023-04-01T10:26:35.555Z,93809.00
2023-04-01T10:27:35.569Z,93807.00
2023-04-01T10:28:35.551Z,93805.00
2023-04-01T10:29:35.581Z,93807.00
2023-04-01T10:30:35.633Z,93805.00
2023-04-01T10:31:35.629Z,93807.00
2023-04-01T10:32:35.650Z,93803.00
2023-04-01T10:33:35.664Z,93803.00
2023-04-01T10:34:35.634Z,93803.00
2023-04-01T10:35:36.081Z,93801.00
2023-04-01T10:36:35.669Z,93805.00
2023-04-01T10:37:35.710Z,93799.00
2023-04-01T10:38:35.744Z,93795.00
2023-04-01T10:39:35.753Z,93793.00
2023-04-01T10:40:35.869Z,93793.00
2023-04-01T10:41:35.731Z,93795.00
2023-04-01T10:42:35.777Z,93789.00
2023-04-01T10:43:35.772Z,93793.00
2023-04-01T10:44:35.800Z,93789.00
2023-04-01T10:45:36.228Z,93787.00
2023-04-01T10:46:35.895Z,93789.00
2023-04-01T10:47:35.876Z,93785.00
2023-04-01T10:48:35.849Z,93785.00
2023-04-01T10:49:35.860Z,93777.00
2023-04-01T10:50:35.868Z,93785.00
2023-04-01T10:51:35.903Z,93787.00
2023-04-01T10:52:35.912Z,93779.00
2023-04-01T10:53:35.899Z,93779.00
2023-04-01T10:54:35.930Z,93775.00
2023-04-01T10:55:36.212Z,93775.00
2023-04-01T10:56:35.946Z,93772.00
2023-04-01T10:57:36.233Z,93772.00
2023-04-01T10:58:35.950Z,93768.00
2023-04-01T10:59:35.971Z,93772.00
2023-04-01T11:00:36.002Z,93772.00
2023-04-01T11:01:36.013Z,93772.00
2023-04-01T11:02:36.097Z,93768.00
2023-04-01T11:03:36.160Z,93768.00
2023-04-01T11:04:36.029Z,93768.00
2023-04-01T11:05:36.223Z,93768.00
2023-04-01T11:06:36.037Z,93766.00
2023-04-01T11:07:36.066Z,93768.00
2023-04-01T11:08:36.087Z,93766.00
2023-04-01T11:09:36.067Z,93770.00
2023-04-01T11:10:36.082Z,93764.00
2023-04-01T11:11:36.089Z,93762.00
2023-04-01T11:12:36.103Z,93758.00
2023-04-01T11:13:36.080Z,93758.00
2023-04-01T11:14:36.091Z,93754.00
2023-04-01T11:15:36.418Z,93754.00
2023-04-01T11:16:36.301Z,93752.00
2023-04-01T11:17:36.176Z,93750.00
2023-04-01T11:18:36.174Z,93748.00
2023-04-01T11:19:36.130Z,93750.00
2023-04-01T11:20:36.142Z,93748.00
2023-04-01T11:21:36.100Z,93742.00
2023-04-01T11:22:36.121Z,93740.00
2023-04-01T11:23:36.134Z,93746.00
2023-04-01T11:24:36.099Z,93746.00
2023-04-01T11:25:36.112Z,93742.00
2023-04-01T11:26:36.169Z,93740.00
2023-04-01T11:27:38.917Z,93736.00
2023-04-01T11:28:36.105Z,93740.00
2023-04-01T11:29:37.451Z,93738.00
2023-04-01T11:30:36.075Z,93736.00
2023-04-01T11:31:36.083Z,93740.00
2023-04-01T11:32:36.116Z,93736.00
2023-04-01T11:33:36.065Z,93736.00
2023-04-01T11:34:36.038Z,93732.00
2023-04-01T11:35:36.275Z,93732.00
2023-04-01T11:36:36.064Z,93734.00
2023-04-01T11:37:36.032Z,93732.00
2023-04-01T11:38:36.657Z,93734.00
2023-04-01T11:39:36.025Z,93734.00
2023-04-01T11:40:36.036Z,93730.00
2023-04-01T11:41:36.026Z,93732.00
2023-04-01T11:42:36.022Z,93730.00
2023-04-01T11:43:36.023Z,93732.00
2023-04-01T11:44:35.995Z,93728.00